createdAt,value
2023-05-22T00:00:09.158Z,23.08
2023-05-22T00:02:43.305Z,23.10
2023-05-22T00:05:15.461Z,23.13
2023-05-22T00:07:43.595Z,23.05
2023-05-22T00:10:11.797Z,22.96
2023-05-22T00:12:39.675Z,22.85
2023-05-22T00:15:07.835Z,22.83
2023-05-22T00:17:35.673Z,22.78
2023-05-22T00:20:06.946Z,22.67
2023-05-22T00:22:35.680Z,22.65
2023-05-22T00:25:04.320Z,22.64
2023-05-22T00:27:32.018Z,22.60
2023-05-22T00:30:00.215Z,22.63
2023-05-22T00:32:27.792Z,22.61
2023-05-22T00:34:55.361Z,22.54
2023-05-22T00:37:23.307Z,22.60
2023-05-22T00:39:51.018Z,22.50
2023-05-22T00:42:19.049Z,22.54
2023-05-22T00:44:48.349Z,22.56
2023-05-22T00:47:16.057Z,22.49
2023-05-22T00:49:44.152Z,22.49
2023-05-22T00:52:13.139Z,22.18
2023-05-22T00:54:40.727Z,22.02
2023-05-22T00:57:08.280Z,22.08
2023-05-22T00:59:36.333Z,21.94
2023-05-22T01:02:04.108Z,21.87
2023-05-22T01:04:32.880Z,21.92
2023-05-22T01:07:02.921Z,21.90
2023-05-22T01:09:30.666Z,21.90
2023-05-22T01:12:04.255Z,21.80
2023-05-22T01:14:47.363Z,21.67
2023-05-22T01:17:34.836Z,21.62
2023-05-22T01:20:23.099Z,21.60
2023-05-22T01:23:11.810Z,21.64
2023-05-22T01:25:56.983Z,21.60
2023-05-22T01:28:36.723Z,21.60
2023-05-22T01:31:11.134Z,21.62
2023-05-22T01:34:11.866Z,21.43
2023-05-22T01:36:41.745Z,21.39
2023-05-22T01:39:09.709Z,21.46
2023-05-22T01:41:37.538Z,21.40
2023-05-22T01:44:05.318Z,21.37
2023-05-22T01:46:33.756Z,21.31
2023-05-22T01:49:01.349Z,21.14
2023-05-22T01:51:48.790Z,21.20
2023-05-22T01:54:24.157Z,21.15
2023-05-22T01:57:03.388Z,21.13
2023-05-22T01:59:40.813Z,20.78
2023-05-22T02:02:11.064Z,20.88
2023-05-22T02:04:39.812Z,20.88
2023-05-22T02:07:12.004Z,20.78
2023-05-22T02:09:41.088Z,20.82
2023-05-22T02:12:09.082Z,20.78
2023-05-22T02:14:36.911Z,20.79
2023-05-22T02:17:05.757Z,20.81
2023-05-22T02:19:35.281Z,20.76
2023-05-22T02:22:03.110Z,20.78
2023-05-22T02:24:36.142Z,20.61
2023-05-22T02:27:04.160Z,20.60
2023-05-22T02:29:31.910Z,20.62
2023-05-22T02:31:59.501Z,20.57
2023-05-22T02:34:27.132Z,20.67
2023-05-22T02:36:56.358Z,20.63
2023-05-22T02:39:23.911Z,20.58
2023-05-22T02:41:51.405Z,20.60
2023-05-22T02:44:19.104Z,20.51
2023-05-22T02:46:47.547Z,20.44
2023-05-22T02:49:15.094Z,20.32
2023-05-22T02:51:47.593Z,20.36
2023-05-22T02:54:16.278Z,20.37
2023-05-22T02:56:44.204Z,20.32
2023-05-22T02:59:11.671Z,20.25
2023-05-22T03:01:39.801Z,20.40
2023-05-22T03:04:07.805Z,20.42
2023-05-22T03:06:37.224Z,20.37
2023-05-22T03:09:04.963Z,20.20
2023-05-22T03:11:32.755Z,20.24
2023-05-22T03:14:00.494Z,20.00
2023-05-22T03:16:28.181Z,19.89
2023-05-22T03:19:12.405Z,19.96
2023-05-22T03:21:40.860Z,20.02
2023-05-22T03:24:08.588Z,20.05
2023-05-22T03:26:36.130Z,19.84
2023-05-22T03:29:03.939Z,19.94
2023-05-22T03:31:33.294Z,19.99
2023-05-22T03:34:02.429Z,20.02
2023-05-22T03:36:32.452Z,20.15
2023-05-22T03:39:00.728Z,20.19
2023-05-22T03:41:28.356Z,20.21
2023-05-22T03:43:57.327Z,20.09
2023-05-22T03:46:25.725Z,20.24
2023-05-22T03:48:53.387Z,20.38
2023-05-22T03:51:21.585Z,20.27
2023-05-22T03:53:49.424Z,20.20
2023-05-22T03:56:16.984Z,20.31
2023-05-22T03:58:44.554Z,20.41
2023-05-22T04:01:13.934Z,20.40
2023-05-22T04:03:41.849Z,20.37
2023-05-22T04:06:13.831Z,20.21
2023-05-22T04:08:41.730Z,20.45
2023-05-22T04:11:09.286Z,20.36
2023-05-22T04:13:36.752Z,20.42
2023-05-22T04:16:04.775Z,20.35
2023-05-22T04:18:32.381Z,20.46
2023-05-22T04:20:59.876Z,20.43
2023-05-22T04:23:27.605Z,20.44
2023-05-22T04:25:55.861Z,20.34
2023-05-22T04:28:23.453Z,20.41
2023-05-22T04:30:51.305Z,20.34
2023-05-22T04:33:18.898Z,20.50
2023-05-22T04:35:46.390Z,20.53
2023-05-22T04:38:14.168Z,20.57
2023-05-22T04:40:41.897Z,20.69
2023-05-22T04:43:09.788Z,20.68
2023-05-22T04:45:37.485Z,20.76
2023-05-22T04:48:05.439Z,20.88
2023-05-22T04:50:33.256Z,20.97
2023-05-22T04:53:04.377Z,20.99
2023-05-22T04:55:35.224Z,21.15
2023-05-22T04:58:03.231Z,21.20
2023-05-22T05:00:30.688Z,21.37
2023-05-22T05:03:00.498Z,21.44
2023-05-22T05:05:28.511Z,21.58
2023-05-22T05:07:56.375Z,21.72
2023-05-22T05:10:24.073Z,21.68
2023-05-22T05:12:53.096Z,21.60
2023-05-22T05:15:22.881Z,21.81
2023-05-22T05:17:51.051Z,21.92
2023-05-22T05:20:19.057Z,21.99
2023-05-22T05:22:46.645Z,22.04
2023-05-22T05:25:14.425Z,22.06
2023-05-22T05:27:43.019Z,22.09
2023-05-22T05:30:10.915Z,22.26
2023-05-22T05:32:39.116Z,22.27
2023-05-22T05:35:07.956Z,22.32
2023-05-22T05:37:36.739Z,22.41
2023-05-22T05:40:07.187Z,22.44
2023-05-22T05:42:36.129Z,22.69
2023-05-22T05:45:04.147Z,22.90
2023-05-22T05:47:32.471Z,22.92
2023-05-22T05:50:00.849Z,23.02
2023-05-22T05:52:32.615Z,22.60
2023-05-22T05:55:03.511Z,22.83
2023-05-22T05:57:31.591Z,23.01
2023-05-22T05:59:59.359Z,22.80
2023-05-22T06:02:28.666Z,22.82
2023-05-22T06:04:56.638Z,23.16
2023-05-22T06:07:24.368Z,23.21
2023-05-22T06:09:52.679Z,23.12
2023-05-22T06:12:21.348Z,23.35
2023-05-22T06:14:48.948Z,23.12
2023-05-22T06:17:16.913Z,23.46
2023-05-22T06:19:44.872Z,23.13
2023-05-22T06:22:13.048Z,23.43
2023-05-22T06:24:41.154Z,23.29
2023-05-22T06:27:09.436Z,22.90
2023-05-22T06:29:36.966Z,23.32
2023-05-22T06:32:06.009Z,23.33
2023-05-22T06:34:34.023Z,23.24
2023-05-22T06:37:04.126Z,23.37
2023-05-22T06:39:32.297Z,23.74
2023-05-22T06:42:01.764Z,23.67
2023-05-22T06:44:36.390Z,23.24
2023-05-22T06:47:05.917Z,23.69
2023-05-22T06:49:34.302Z,23.58
2023-05-22T06:52:03.928Z,23.70
2023-05-22T06:54:32.966Z,23.41
2023-05-22T06:57:00.588Z,23.18
2023-05-22T06:59:28.145Z,23.68
2023-05-22T07:01:59.039Z,23.92
2023-05-22T07:04:27.723Z,24.04
2023-05-22T07:06:55.475Z,24.05
2023-05-22T07:09:26.064Z,23.86
2023-05-22T07:11:53.991Z,23.73
2023-05-22T07:14:21.597Z,23.04
2023-05-22T07:16:49.639Z,23.93
2023-05-22T07:19:17.959Z,24.17
2023-05-22T07:21:45.583Z,24.09
2023-05-22T07:24:15.089Z,23.91
2023-05-22T07:26:46.647Z,23.34
2023-05-22T07:29:14.643Z,23.46
2023-05-22T07:31:42.680Z,23.59
2023-05-22T07:34:10.969Z,23.07
2023-05-22T07:36:38.793Z,23.44
2023-05-22T07:39:06.806Z,23.63
2023-05-22T07:41:35.596Z,23.39
2023-05-22T07:44:03.439Z,23.63
2023-05-22T07:46:31.635Z,23.56
2023-05-22T07:48:59.357Z,23.87
2023-05-22T07:51:27.503Z,23.86
2023-05-22T07:53:55.895Z,23.60
2023-05-22T07:56:25.834Z,23.92
2023-05-22T07:58:54.350Z,23.92
2023-05-22T08:01:22.886Z,23.86
2023-05-22T08:03:50.737Z,23.70
2023-05-22T08:06:18.310Z,23.42
2023-05-22T08:08:45.776Z,23.64
2023-05-22T08:11:13.577Z,23.73
2023-05-22T08:13:41.258Z,23.64
2023-05-22T08:16:08.990Z,23.57
2023-05-22T08:18:36.792Z,23.55
2023-05-22T08:21:04.344Z,23.59
2023-05-22T08:23:32.724Z,23.62
2023-05-22T08:26:00.624Z,23.45
2023-05-22T08:28:28.112Z,23.76
2023-05-22T08:30:55.622Z,23.99
2023-05-22T08:33:23.379Z,23.79
2023-05-22T08:35:51.173Z,23.95
2023-05-22T08:38:18.759Z,23.76
2023-05-22T08:40:48.691Z,24.29
2023-05-22T08:43:16.279Z,24.44
2023-05-22T08:45:44.278Z,24.55
2023-05-22T08:48:13.455Z,24.58
2023-05-22T08:50:43.102Z,24.90
2023-05-22T08:53:13.516Z,25.00
2023-05-22T08:55:41.301Z,24.58
2023-05-22T08:58:09.316Z,24.76
2023-05-22T09:00:37.431Z,25.03
2023-05-22T09:03:07.109Z,25.13
2023-05-22T09:05:36.362Z,25.33
2023-05-22T09:08:16.074Z,25.06
2023-05-22T09:10:47.326Z,25.29
2023-05-22T09:13:25.258Z,24.99
2023-05-22T09:15:53.488Z,25.61
2023-05-22T09:18:22.329Z,25.39
2023-05-22T09:20:50.892Z,25.34
2023-05-22T09:23:22.007Z,25.14
2023-05-22T09:25:49.544Z,24.74
2023-05-22T09:28:17.048Z,24.98
2023-05-22T09:30:49.603Z,25.39
2023-05-22T09:33:18.775Z,25.33
2023-05-22T09:35:47.230Z,25.50
2023-05-22T09:38:14.776Z,25.67
2023-05-22T09:40:42.590Z,25.50
2023-05-22T09:43:10.974Z,25.97
2023-05-22T09:45:39.441Z,25.87
2023-05-22T09:48:08.963Z,26.01
2023-05-22T09:50:37.160Z,26.08
2023-05-22T09:53:05.852Z,25.96
2023-05-22T09:55:33.870Z,25.58
2023-05-22T09:58:04.243Z,25.48
2023-05-22T10:00:34.240Z,26.12
2023-05-22T10:03:16.049Z,26.00
2023-05-22T10:05:48.727Z,26.37
2023-05-22T10:08:25.275Z,26.52
2023-05-22T10:10:53.292Z,26.79
2023-05-22T10:13:21.637Z,26.19
2023-05-22T10:15:50.239Z,26.47
2023-05-22T10:18:18.355Z,26.84
2023-05-22T10:20:49.041Z,27.16
2023-05-22T10:23:17.385Z,26.99
2023-05-22T10:25:46.221Z,26.91
2023-05-22T10:28:22.565Z,27.46
2023-05-22T10:30:53.958Z,27.34
2023-05-22T10:33:30.233Z,27.85
2023-05-22T10:36:02.055Z,27.96
2023-05-22T10:38:58.265Z,27.83
2023-05-22T10:41:26.401Z,27.65
2023-05-22T10:43:56.331Z,28.10
2023-05-22T10:46:24.008Z,28.24
2023-05-22T10:48:55.373Z,27.92
2023-05-22T10:51:23.328Z,28.08
2023-05-22T10:53:58.875Z,27.98
2023-05-22T10:56:34.357Z,28.24
2023-05-22T10:59:08.454Z,28.59
2023-05-22T11:01:38.344Z,28.05
2023-05-22T11:04:13.072Z,28.60
2023-05-22T11:06:42.780Z,28.32
2023-05-22T11:09:32.448Z,28.63
2023-05-22T11:12:27.469Z,29.20
2023-05-22T11:15:09.085Z,29.17
2023-05-22T11:17:39.857Z,29.20
2023-05-22T11:20:13.301Z,29.24
2023-05-22T11:22:42.623Z,29.43
2023-05-22T11:25:15.069Z,29.53
2023-05-22T11:27:42.939Z,29.36
2023-05-22T11:30:11.800Z,29.20
2023-05-22T11:32:40.909Z,28.86
2023-05-22T11:35:08.907Z,29.05
2023-05-22T11:37:42.491Z,29.21
2023-05-22T11:40:12.824Z,29.15
2023-05-22T11:42:40.328Z,29.35
2023-05-22T11:45:08.657Z,29.45
2023-05-22T11:47:37.252Z,29.10
2023-05-22T11:50:06.863Z,29.31
2023-05-22T11:52:35.735Z,29.12
2023-05-22T11:55:07.897Z,28.87
2023-05-22T11:57:36.017Z,29.42
2023-05-22T12:00:08.529Z,29.23
2023-05-22T12:02:44.255Z,29.52
2023-05-22T12:05:12.114Z,29.07
2023-05-22T12:07:39.760Z,29.29
2023-05-22T12:10:08.233Z,29.46
2023-05-22T12:12:37.283Z,29.25
2023-05-22T12:15:08.152Z,29.22
2023-05-22T12:17:40.079Z,29.42
2023-05-22T12:20:07.946Z,29.46
2023-05-22T12:22:41.183Z,29.25
2023-05-22T12:25:16.860Z,29.11
2023-05-22T12:27:48.346Z,29.48
2023-05-22T12:30:16.655Z,29.34
2023-05-22T12:32:49.057Z,29.37
2023-05-22T12:35:17.395Z,29.53
2023-05-22T12:37:51.798Z,29.19
2023-05-22T12:40:19.502Z,29.08
2023-05-22T12:42:48.487Z,29.11
2023-05-22T12:45:17.868Z,29.12
2023-05-22T12:47:45.773Z,29.30
2023-05-22T12:50:13.682Z,29.53
2023-05-22T12:52:41.348Z,29.70
2023-05-22T12:55:11.157Z,29.35
2023-05-22T12:57:38.950Z,29.58
2023-05-22T13:00:07.368Z,29.35
2023-05-22T13:02:35.532Z,29.18
2023-05-22T13:05:03.638Z,29.52
2023-05-22T13:07:32.394Z,29.37
2023-05-22T13:09:59.914Z,29.56
2023-05-22T13:12:27.641Z,28.58
2023-05-22T13:14:55.158Z,29.22
2023-05-22T13:17:22.703Z,28.95
2023-05-22T13:19:51.349Z,28.90
2023-05-22T13:22:18.853Z,29.44
2023-05-22T13:24:46.456Z,29.46
2023-05-22T13:27:16.655Z,29.62
2023-05-22T13:29:44.888Z,29.99
2023-05-22T13:32:13.411Z,29.74
2023-05-22T13:34:41.798Z,29.31
2023-05-22T13:37:09.710Z,29.65
2023-05-22T13:39:37.431Z,29.49
2023-05-22T13:42:05.597Z,29.75
2023-05-22T13:44:33.192Z,29.77
2023-05-22T13:47:00.659Z,29.83
2023-05-22T13:49:29.074Z,29.22
2023-05-22T13:51:56.559Z,28.68
2023-05-22T13:54:24.072Z,28.65
2023-05-22T13:56:51.836Z,29.16
2023-05-22T13:59:19.371Z,28.97
2023-05-22T14:01:46.997Z,29.41
2023-05-22T14:04:15.348Z,29.46
2023-05-22T14:06:47.829Z,29.38
2023-05-22T14:09:15.835Z,29.36
2023-05-22T14:11:43.305Z,29.51
2023-05-22T14:14:11.077Z,29.21
2023-05-22T14:16:39.022Z,29.76
2023-05-22T14:19:06.599Z,29.54
2023-05-22T14:21:34.154Z,27.56
2023-05-22T14:24:04.475Z,28.62
2023-05-22T14:26:32.131Z,28.88
2023-05-22T14:28:59.904Z,29.30
2023-05-22T14:31:29.127Z,28.52
2023-05-22T14:33:56.719Z,28.87
2023-05-22T14:36:24.193Z,29.10
2023-05-22T14:38:55.627Z,29.22
2023-05-22T14:41:23.186Z,29.14
2023-05-22T14:43:50.651Z,29.45
2023-05-22T14:46:18.469Z,29.58
2023-05-22T14:48:45.998Z,29.44
2023-05-22T14:51:13.698Z,29.55
2023-05-22T14:53:41.423Z,29.64
2023-05-22T14:56:09.032Z,29.85
2023-05-22T14:58:36.602Z,29.97
2023-05-22T15:01:04.654Z,29.89
2023-05-22T15:03:32.173Z,29.89
2023-05-22T15:05:59.647Z,29.62
2023-05-22T15:08:27.638Z,29.61
2023-05-22T15:10:55.093Z,29.53
2023-05-22T15:13:22.603Z,29.62
2023-05-22T15:15:50.399Z,29.56
2023-05-22T15:18:17.914Z,29.54
2023-05-22T15:20:45.633Z,29.47
2023-05-22T15:23:13.833Z,29.56
2023-05-22T15:25:42.929Z,29.52
2023-05-22T15:28:10.523Z,29.43
2023-05-22T15:30:39.168Z,29.21
2023-05-22T15:33:07.186Z,28.99
2023-05-22T15:35:34.731Z,29.00
2023-05-22T15:38:03.204Z,29.22
2023-05-22T15:40:31.023Z,29.22
2023-05-22T15:43:01.731Z,29.43
2023-05-22T15:45:30.572Z,29.28
2023-05-22T15:47:58.472Z,29.45
2023-05-22T15:50:26.116Z,29.49
2023-05-22T15:52:53.909Z,29.52
2023-05-22T15:55:21.471Z,29.46
2023-05-22T15:57:48.989Z,29.23
2023-05-22T16:00:18.637Z,29.41
2023-05-22T16:02:46.500Z,29.45
2023-05-22T16:05:14.194Z,29.60
2023-05-22T16:07:42.732Z,29.53
2023-05-22T16:10:10.966Z,29.22
2023-05-22T16:12:41.735Z,29.23
2023-05-22T16:15:09.821Z,29.31
2023-05-22T16:17:38.985Z,29.54
2023-05-22T16:20:08.669Z,29.54
2023-05-22T16:22:47.221Z,29.38
2023-05-22T16:25:17.154Z,29.26
2023-05-22T16:27:44.694Z,29.02
2023-05-22T16:30:12.549Z,29.05
2023-05-22T16:32:40.897Z,28.82
2023-05-22T16:35:09.550Z,28.21
2023-05-22T16:37:37.144Z,28.15
2023-05-22T16:40:05.910Z,28.00
2023-05-22T16:42:33.469Z,27.39
2023-05-22T16:45:01.080Z,27.08
2023-05-22T16:47:30.123Z,26.99
2023-05-22T16:49:57.817Z,27.08
2023-05-22T16:52:26.288Z,27.03
2023-05-22T16:54:54.260Z,27.15
2023-05-22T16:57:21.742Z,27.24
2023-05-22T16:59:49.391Z,27.05
2023-05-22T17:02:17.471Z,27.18
2023-05-22T17:04:45.204Z,27.09
2023-05-22T17:07:12.755Z,26.92
2023-05-22T17:09:40.744Z,26.77
2023-05-22T17:12:08.974Z,26.86
2023-05-22T17:14:37.427Z,26.81
2023-05-22T17:17:05.428Z,26.65
2023-05-22T17:19:33.085Z,26.64
2023-05-22T17:22:00.745Z,26.51
2023-05-22T17:24:30.031Z,26.38
2023-05-22T17:26:57.578Z,26.50
2023-05-22T17:29:27.163Z,26.56
2023-05-22T17:31:55.865Z,26.49
2023-05-22T17:34:24.374Z,26.42
2023-05-22T17:36:51.831Z,26.42
2023-05-22T17:39:19.615Z,26.29
2023-05-22T17:41:47.144Z,26.18
2023-05-22T17:44:14.737Z,25.99
2023-05-22T17:46:42.568Z,25.95
2023-05-22T17:49:10.245Z,26.00
2023-05-22T17:51:37.787Z,25.97
2023-05-22T17:54:06.202Z,25.91
2023-05-22T17:56:33.716Z,25.71
2023-05-22T17:59:01.395Z,25.57
2023-05-22T18:01:30.583Z,25.52
2023-05-22T18:04:00.040Z,25.54
2023-05-22T18:06:28.864Z,25.47
2023-05-22T18:08:56.525Z,25.32
2023-05-22T18:11:24.478Z,25.25
2023-05-22T18:13:52.036Z,25.38
2023-05-22T18:16:19.734Z,25.42
2023-05-22T18:18:47.523Z,25.48
2023-05-22T18:21:15.141Z,25.45
2023-05-22T18:23:42.663Z,25.47
2023-05-22T18:26:10.523Z,25.46
2023-05-22T18:28:38.063Z,25.49
2023-05-22T18:31:05.595Z,25.50
2023-05-22T18:33:33.701Z,25.41
2023-05-22T18:36:01.860Z,25.42
2023-05-22T18:38:30.105Z,25.44
2023-05-22T18:40:58.080Z,25.41
2023-05-22T18:43:28.309Z,25.46
2023-05-22T18:45:57.343Z,25.39
2023-05-22T18:48:25.446Z,25.30
2023-05-22T18:50:53.306Z,25.13
2023-05-22T18:53:22.144Z,25.22
2023-05-22T18:55:49.915Z,25.27
2023-05-22T18:58:17.516Z,25.15
2023-05-22T19:00:45.732Z,25.15
2023-05-22T19:03:14.090Z,25.12
2023-05-22T19:05:42.002Z,25.00
2023-05-22T19:08:09.663Z,25.03
2023-05-22T19:10:37.477Z,24.93
2023-05-22T19:13:05.099Z,24.94
2023-05-22T19:15:34.383Z,24.97
2023-05-22T19:18:02.274Z,24.94
2023-05-22T19:20:29.866Z,24.95
2023-05-22T19:22:57.832Z,24.99
2023-05-22T19:25:25.872Z,24.93
2023-05-22T19:27:54.658Z,24.76
2023-05-22T19:30:22.415Z,24.63
2023-05-22T19:32:50.340Z,24.58
2023-05-22T19:35:18.007Z,24.52
2023-05-22T19:37:53.614Z,24.50
2023-05-22T19:40:21.324Z,24.54
2023-05-22T19:42:48.860Z,24.33
2023-05-22T19:45:17.571Z,24.28
2023-05-22T19:47:45.541Z,24.32
2023-05-22T19:50:13.308Z,24.40
2023-05-22T19:52:40.909Z,24.36
2023-05-22T19:55:10.370Z,24.23
2023-05-22T19:57:37.835Z,24.14
2023-05-22T20:00:07.692Z,23.99
2023-05-22T20:02:35.671Z,23.92
2023-05-22T20:05:05.100Z,23.96
2023-05-22T20:07:32.613Z,23.89
2023-05-22T20:10:00.472Z,23.74
2023-05-22T20:12:31.139Z,23.48
2023-05-22T20:14:58.615Z,23.58
2023-05-22T20:17:26.641Z,23.47
2023-05-22T20:19:54.202Z,23.25
2023-05-22T20:22:21.738Z,23.17
2023-05-22T20:24:49.546Z,23.19
2023-05-22T20:27:16.998Z,23.08
2023-05-22T20:29:44.466Z,23.10
2023-05-22T20:32:12.491Z,22.97
2023-05-22T20:34:40.394Z,23.03
2023-05-22T20:37:09.954Z,22.98
2023-05-22T20:39:37.742Z,22.95
2023-05-22T20:42:06.338Z,22.83
2023-05-22T20:44:33.773Z,22.76
2023-05-22T20:47:01.544Z,22.76
2023-05-22T20:49:29.989Z,22.68
2023-05-22T20:52:00.004Z,22.61
2023-05-22T20:54:34.331Z,22.59
2023-05-22T20:57:02.282Z,22.55
2023-05-22T20:59:30.258Z,22.26
2023-05-22T21:01:57.924Z,22.32
2023-05-22T21:04:26.316Z,22.24
2023-05-22T21:06:54.118Z,22.21
2023-05-22T21:09:21.704Z,22.02
2023-05-22T21:11:49.192Z,21.81
2023-05-22T21:14:17.401Z,21.99
2023-05-22T21:16:44.992Z,21.98
2023-05-22T21:19:12.482Z,22.08
2023-05-22T21:21:41.851Z,22.16
2023-05-22T21:24:09.959Z,22.17
2023-05-22T21:26:37.613Z,22.14
2023-05-22T21:29:05.565Z,22.11
2023-05-22T21:31:35.365Z,22.06
2023-05-22T21:34:03.295Z,22.05
2023-05-22T21:36:31.902Z,22.01
2023-05-22T21:39:00.477Z,22.04
2023-05-22T21:41:28.058Z,21.97
2023-05-22T21:43:56.982Z,21.92
2023-05-22T21:46:24.553Z,21.93
2023-05-22T21:48:53.739Z,21.84
2023-05-22T21:51:21.896Z,21.80
2023-05-22T21:53:49.336Z,21.76
2023-05-22T21:56:16.979Z,21.63
2023-05-22T21:58:44.769Z,21.65
2023-05-22T22:01:12.270Z,21.77
2023-05-22T22:03:40.245Z,21.83
2023-05-22T22:06:07.905Z,21.81
2023-05-22T22:08:35.513Z,21.90
2023-05-22T22:11:03.657Z,21.89
2023-05-22T22:13:31.099Z,21.84
2023-05-22T22:15:59.465Z,21.89
2023-05-22T22:18:27.283Z,21.72
2023-05-22T22:20:55.911Z,21.66
2023-05-22T22:23:23.438Z,21.75
2023-05-22T22:25:51.177Z,21.45
2023-05-22T22:28:18.742Z,21.56
2023-05-22T22:30:47.828Z,21.51
2023-05-22T22:33:15.641Z,21.53
2023-05-22T22:35:43.155Z,21.50
2023-05-22T22:38:10.869Z,21.52
2023-05-22T22:40:38.838Z,21.49
2023-05-22T22:43:06.491Z,21.51
2023-05-22T22:45:33.977Z,21.39
2023-05-22T22:48:01.721Z,21.40
2023-05-22T22:50:29.825Z,21.40
2023-05-22T22:52:57.328Z,21.39
2023-05-22T22:55:25.132Z,21.35
2023-05-22T22:57:53.485Z,21.35
2023-05-22T23:00:21.050Z,21.38
2023-05-22T23:02:49.064Z,21.37
2023-05-22T23:05:20.163Z,21.35
2023-05-22T23:07:48.169Z,21.41
2023-05-22T23:10:15.941Z,21.43
2023-05-22T23:12:43.501Z,21.40
2023-05-22T23:15:13.314Z,21.47
2023-05-22T23:17:41.473Z,21.38
2023-05-22T23:20:09.873Z,21.46
2023-05-22T23:22:37.377Z,21.46
2023-05-22T23:25:05.691Z,21.47
2023-05-22T23:27:33.209Z,21.17
2023-05-22T23:30:00.791Z,21.23
2023-05-22T23:32:28.829Z,21.27
2023-05-22T23:34:56.756Z,21.25
2023-05-22T23:37:24.378Z,21.23
2023-05-22T23:39:52.240Z,21.14
2023-05-22T23:42:19.804Z,21.05
2023-05-22T23:44:47.262Z,21.12
2023-05-22T23:47:16.754Z,21.12
2023-05-22T23:49:44.698Z,21.09
2023-05-22T23:52:13.151Z,21.08
2023-05-22T23:54:41.009Z,21.06
2023-05-22T23:57:08.615Z,21.05
2023-05-22T23:59:36.186Z,21.02
